createdAt,value
2023-02-09T00:01:16.694Z,-2.40
2023-02-09T00:03:19.314Z,-2.49
2023-02-09T00:05:21.910Z,-2.51
2023-02-09T00:07:24.597Z,-2.51
2023-02-09T00:09:27.163Z,-2.46
2023-02-09T00:11:51.504Z,-2.51
2023-02-09T00:13:54.018Z,-2.56
2023-02-09T00:16:01.477Z,-2.59
2023-02-09T00:18:04.157Z,-2.54
2023-02-09T00:20:08.271Z,-2.50
2023-02-09T00:22:10.831Z,-2.45
2023-02-09T00:24:14.045Z,-2.39
2023-02-09T00:26:16.704Z,-2.35
2023-02-09T00:28:19.685Z,-2.31
2023-02-09T00:30:22.549Z,-2.32
2023-02-09T00:32:26.487Z,-2.30
2023-02-09T00:34:29.040Z,-2.28
2023-02-09T00:36:31.942Z,-2.24
2023-02-09T00:38:35.344Z,-2.21
2023-02-09T00:40:38.217Z,-2.20
2023-02-09T00:42:40.759Z,-2.18
2023-02-09T00:44:43.277Z,-2.16
2023-02-09T00:46:45.870Z,-2.12
2023-02-09T00:48:49.741Z,-2.08
2023-02-09T00:50:53.073Z,-2.06
2023-02-09T00:52:56.060Z,-2.02
2023-02-09T00:54:58.599Z,-1.99
2023-02-09T00:57:05.228Z,-1.96
2023-02-09T00:59:07.876Z,-1.90
2023-02-09T01:01:13.307Z,-1.96
2023-02-09T01:03:15.887Z,-2.00
2023-02-09T01:05:20.023Z,-2.13
2023-02-09T01:07:22.650Z,-2.15
2023-02-09T01:09:25.909Z,-2.17
2023-02-09T01:11:29.832Z,-2.16
2023-02-09T01:13:32.405Z,-2.18
2023-02-09T01:15:35.057Z,-2.18
2023-02-09T01:17:38.468Z,-2.18
2023-02-09T01:19:41.051Z,-2.22
2023-02-09T01:21:47.728Z,-2.26
2023-02-09T01:23:50.797Z,-2.42
2023-02-09T01:26:02.345Z,-2.31
2023-02-09T01:28:04.967Z,-2.40
2023-02-09T01:30:08.478Z,-2.47
2023-02-09T01:32:11.154Z,-2.51
2023-02-09T01:34:15.915Z,-2.57
2023-02-09T01:36:18.570Z,-2.60
2023-02-09T01:38:22.484Z,-2.62
2023-02-09T01:40:25.263Z,-2.63
2023-02-09T01:42:28.016Z,-2.63
2023-02-09T01:45:13.498Z,-2.62
2023-02-09T01:47:17.304Z,-2.58
2023-02-09T01:49:22.537Z,-2.60
2023-02-09T01:51:26.534Z,-2.60
2023-02-09T01:53:30.529Z,-2.58
2023-02-09T01:55:37.934Z,-2.57
2023-02-09T01:57:45.284Z,-2.62
2023-02-09T01:59:53.001Z,-2.61
2023-02-09T02:01:55.754Z,-2.66
2023-02-09T02:03:58.301Z,-2.72
2023-02-09T02:06:05.949Z,-2.78
2023-02-09T02:08:13.279Z,-2.79
2023-02-09T02:10:17.552Z,-2.78
2023-02-09T02:12:20.554Z,-2.83
2023-02-09T02:14:30.867Z,-2.84
2023-02-09T02:16:44.791Z,-2.83
2023-02-09T02:19:02.709Z,-2.81
2023-02-09T02:21:51.247Z,-2.92
2023-02-09T02:24:08.523Z,-3.08
2023-02-09T02:26:35.530Z,-3.11
2023-02-09T02:28:46.033Z,-3.14
2023-02-09T02:31:05.482Z,-3.18
2023-02-09T02:33:20.946Z,-3.18
2023-02-09T02:35:34.420Z,-3.21
2023-02-09T02:37:49.733Z,-3.17
2023-02-09T02:40:00.179Z,-3.16
2023-02-09T02:42:27.886Z,-3.11
2023-02-09T02:44:32.942Z,-3.13
2023-02-09T02:46:41.993Z,-3.15
2023-02-09T02:48:53.849Z,-3.16
2023-02-09T02:51:00.954Z,-3.19
2023-02-09T02:53:07.589Z,-3.21
2023-02-09T02:55:14.946Z,-3.26
2023-02-09T02:57:21.508Z,-3.30
2023-02-09T02:59:29.244Z,-3.33
2023-02-09T03:01:36.101Z,-3.38
2023-02-09T03:03:42.011Z,-3.41
2023-02-09T03:05:46.643Z,-3.52
2023-02-09T03:07:49.376Z,-3.51
2023-02-09T03:09:53.518Z,-3.60
2023-02-09T03:11:59.742Z,-3.58
2023-02-09T03:14:22.225Z,-3.60
2023-02-09T03:16:32.974Z,-3.60
2023-02-09T03:18:44.677Z,-3.62
2023-02-09T03:20:51.884Z,-3.64
2023-02-09T03:22:58.296Z,-3.67
2023-02-09T03:25:06.270Z,-3.66
2023-02-09T03:27:15.550Z,-3.69
2023-02-09T03:29:20.839Z,-3.72
2023-02-09T03:31:24.159Z,-3.71
2023-02-09T03:33:29.486Z,-3.71
2023-02-09T03:35:38.019Z,-3.73
2023-02-09T03:37:41.960Z,-3.72
2023-02-09T03:39:44.563Z,-3.73
2023-02-09T03:41:47.173Z,-3.68
2023-02-09T03:44:07.347Z,-3.72
2023-02-09T03:46:10.406Z,-3.76
2023-02-09T03:48:15.861Z,-3.77
2023-02-09T03:50:18.817Z,-3.81
2023-02-09T03:52:21.433Z,-3.79
2023-02-09T03:54:25.324Z,-3.80
2023-02-09T03:56:45.587Z,-3.79
2023-02-09T03:58:48.173Z,-3.89
2023-02-09T04:00:50.786Z,-3.91
2023-02-09T04:02:53.419Z,-3.91
2023-02-09T04:04:56.101Z,-3.93
2023-02-09T04:06:58.855Z,-3.95
2023-02-09T04:09:02.748Z,-3.96
2023-02-09T04:11:06.667Z,-3.96
2023-02-09T04:13:09.259Z,-3.93
2023-02-09T04:15:11.899Z,-3.93
2023-02-09T04:17:14.498Z,-3.97
2023-02-09T04:19:17.751Z,-3.99
2023-02-09T04:21:20.379Z,-4.00
2023-02-09T04:23:22.915Z,-4.02
2023-02-09T04:25:25.496Z,-4.04
2023-02-09T04:27:29.457Z,-4.04
2023-02-09T04:29:32.206Z,-4.06
2023-02-09T04:31:35.962Z,-4.12
2023-02-09T04:33:39.048Z,-4.14
2023-02-09T04:35:43.874Z,-4.17
2023-02-09T04:37:46.478Z,-4.23
2023-02-09T04:39:49.033Z,-4.22
2023-02-09T04:41:51.557Z,-4.24
2023-02-09T04:43:55.435Z,-4.22
2023-02-09T04:45:58.252Z,-4.23
2023-02-09T04:48:00.853Z,-4.21
2023-02-09T04:50:03.430Z,-4.26
2023-02-09T04:52:05.980Z,-4.26
2023-02-09T04:54:08.511Z,-4.26
2023-02-09T04:56:15.365Z,-4.25
2023-02-09T04:58:38.439Z,-4.25
2023-02-09T05:00:42.396Z,-4.26
2023-02-09T05:02:44.983Z,-4.31
2023-02-09T05:04:47.624Z,-4.32
2023-02-09T05:06:50.343Z,-4.36
2023-02-09T05:08:52.961Z,-4.39
2023-02-09T05:10:56.307Z,-4.39
2023-02-09T05:12:58.937Z,-4.40
2023-02-09T05:15:01.575Z,-4.40
2023-02-09T05:17:05.596Z,-4.45
2023-02-09T05:19:08.166Z,-4.45
2023-02-09T05:21:11.051Z,-4.49
2023-02-09T05:23:14.603Z,-4.47
2023-02-09T05:25:17.299Z,-4.45
2023-02-09T05:27:20.155Z,-4.42
2023-02-09T05:29:22.770Z,-4.42
2023-02-09T05:31:25.656Z,-4.41
2023-02-09T05:33:29.841Z,-4.40
2023-02-09T05:35:32.417Z,-4.43
2023-02-09T05:37:35.209Z,-4.45
2023-02-09T05:39:37.811Z,-4.49
2023-02-09T05:41:54.546Z,-4.53
2023-02-09T05:43:57.184Z,-4.54
2023-02-09T05:45:59.793Z,-4.54
2023-02-09T05:48:02.415Z,-4.51
2023-02-09T05:50:06.987Z,-4.52
2023-02-09T05:52:10.446Z,-4.54
2023-02-09T05:54:13.044Z,-4.60
2023-02-09T05:56:15.591Z,-4.60
2023-02-09T05:58:18.149Z,-4.63
2023-02-09T06:00:21.955Z,-4.64
2023-02-09T06:02:24.606Z,-4.67
2023-02-09T06:04:28.346Z,-4.63
2023-02-09T06:06:33.477Z,-4.60
2023-02-09T06:08:36.043Z,-4.56
2023-02-09T06:10:38.644Z,-4.53
2023-02-09T06:12:41.466Z,-4.48
2023-02-09T06:14:44.042Z,-4.43
2023-02-09T06:16:47.137Z,-4.40
2023-02-09T06:18:49.758Z,-4.37
2023-02-09T06:20:53.875Z,-4.34
2023-02-09T06:22:57.991Z,-4.31
2023-02-09T06:25:00.659Z,-4.33
2023-02-09T06:27:03.201Z,-4.36
2023-02-09T06:29:05.903Z,-4.38
2023-02-09T06:31:09.614Z,-4.37
2023-02-09T06:33:12.214Z,-4.38
2023-02-09T06:35:14.839Z,-4.37
2023-02-09T06:37:17.421Z,-4.38
2023-02-09T06:39:21.322Z,-4.36
2023-02-09T06:41:23.916Z,-4.41
2023-02-09T06:43:26.523Z,-4.48
2023-02-09T06:45:29.170Z,-4.50
2023-02-09T06:47:31.807Z,-4.56
2023-02-09T06:49:34.388Z,-4.59
2023-02-09T06:51:37.176Z,-4.60
2023-02-09T06:53:41.089Z,-4.61
2023-02-09T06:55:45.094Z,-4.61
2023-02-09T06:57:47.689Z,-4.62
2023-02-09T06:59:50.329Z,-4.63
2023-02-09T07:01:54.976Z,-4.60
2023-02-09T07:03:57.771Z,-4.62
2023-02-09T07:06:05.075Z,-4.61
2023-02-09T07:08:07.740Z,-4.62
2023-02-09T07:10:11.541Z,-4.63
2023-02-09T07:12:15.464Z,-4.63
2023-02-09T07:14:18.062Z,-4.67
2023-02-09T07:16:20.738Z,-4.68
2023-02-09T07:18:23.448Z,-4.68
2023-02-09T07:20:26.140Z,-4.64
2023-02-09T07:22:28.788Z,-4.60
2023-02-09T07:24:31.430Z,-4.59
2023-02-09T07:26:34.092Z,-4.56
2023-02-09T07:28:38.432Z,-4.57
2023-02-09T07:30:42.069Z,-4.53
2023-02-09T07:32:44.633Z,-4.49
2023-02-09T07:34:47.209Z,-4.48
2023-02-09T07:36:49.910Z,-4.44
2023-02-09T07:38:52.693Z,-4.40
2023-02-09T07:40:55.555Z,-4.35
2023-02-09T07:42:58.107Z,-4.31
2023-02-09T07:45:02.021Z,-4.28
2023-02-09T07:47:04.672Z,-4.25
2023-02-09T07:49:07.254Z,-4.22
2023-02-09T07:51:14.212Z,-4.19
2023-02-09T07:53:20.052Z,-4.11
2023-02-09T07:55:22.750Z,-4.04
2023-02-09T07:57:25.319Z,-4.03
2023-02-09T07:59:27.954Z,-4.00
2023-02-09T08:01:31.954Z,-3.94
2023-02-09T08:03:36.502Z,-3.91
2023-02-09T08:05:44.697Z,-3.84
2023-02-09T08:07:47.535Z,-3.78
2023-02-09T08:09:52.911Z,-3.70
2023-02-09T08:11:58.932Z,-3.75
2023-02-09T08:14:05.868Z,-3.71
2023-02-09T08:16:11.304Z,-3.59
2023-02-09T08:18:19.162Z,-3.57
2023-02-09T08:20:28.602Z,-3.53
2023-02-09T08:22:35.076Z,-3.51
2023-02-09T08:24:37.948Z,-3.46
2023-02-09T08:26:41.026Z,-3.42
2023-02-09T08:28:45.381Z,-3.36
2023-02-09T08:30:50.282Z,-3.36
2023-02-09T08:32:52.878Z,-3.38
2023-02-09T08:34:56.758Z,-3.32
2023-02-09T08:36:59.377Z,-3.31
2023-02-09T08:39:03.148Z,-3.28
2023-02-09T08:41:07.092Z,-3.26
2023-02-09T08:43:09.659Z,-3.24
2023-02-09T08:45:12.247Z,-3.20
2023-02-09T08:47:14.794Z,-3.15
2023-02-09T08:49:17.346Z,-3.06
2023-02-09T08:51:21.522Z,-3.07
2023-02-09T08:53:24.140Z,-3.02
2023-02-09T08:55:26.720Z,-3.02
2023-02-09T08:57:42.705Z,-2.98
2023-02-09T08:59:46.316Z,-2.93
2023-02-09T09:01:49.047Z,-2.83
2023-02-09T09:03:54.115Z,-2.80
2023-02-09T09:05:57.978Z,-2.80
2023-02-09T09:08:01.966Z,-2.72
2023-02-09T09:10:04.845Z,-2.71
2023-02-09T09:12:07.442Z,-2.67
2023-02-09T09:14:10.047Z,-2.63
2023-02-09T09:16:15.541Z,-2.60
2023-02-09T09:18:18.221Z,-2.57
2023-02-09T09:20:20.864Z,-2.54
2023-02-09T09:22:23.909Z,-2.58
2023-02-09T09:24:29.004Z,-2.57
2023-02-09T09:26:31.607Z,-2.50
2023-02-09T09:28:34.216Z,-2.46
2023-02-09T09:30:37.461Z,-2.47
2023-02-09T09:32:40.078Z,-2.44
2023-02-09T09:34:44.217Z,-2.38
2023-02-09T09:36:46.785Z,-2.31
2023-02-09T09:38:49.426Z,-2.24
2023-02-09T09:40:53.772Z,-2.24
2023-02-09T09:42:59.220Z,-2.16
2023-02-09T09:45:02.581Z,-2.06
2023-02-09T09:47:11.383Z,-2.05
2023-02-09T09:49:24.803Z,-2.04
2023-02-09T09:51:37.729Z,-2.02
2023-02-09T09:53:43.275Z,-1.99
2023-02-09T09:55:47.408Z,-1.99
2023-02-09T09:57:53.781Z,-1.90
2023-02-09T09:59:57.842Z,-1.88
2023-02-09T10:02:04.316Z,-1.91
2023-02-09T10:04:13.753Z,-1.79
2023-02-09T10:06:18.747Z,-1.80
2023-02-09T10:08:28.706Z,-1.77
2023-02-09T10:10:41.987Z,-1.74
2023-02-09T10:12:49.500Z,-1.79
2023-02-09T10:14:53.440Z,-1.72
2023-02-09T10:16:56.257Z,-1.60
2023-02-09T10:19:01.001Z,-1.52
2023-02-09T10:21:07.597Z,-1.53
2023-02-09T10:23:17.364Z,-1.53
2023-02-09T10:25:40.293Z,-1.54
2023-02-09T10:27:47.209Z,-1.52
2023-02-09T10:29:49.756Z,-1.49
2023-02-09T10:32:00.736Z,-1.50
2023-02-09T10:34:11.508Z,-1.37
2023-02-09T10:36:25.823Z,-1.33
2023-02-09T10:38:33.572Z,-1.34
2023-02-09T10:40:41.417Z,-1.40
2023-02-09T10:42:54.986Z,-1.36
2023-02-09T10:45:04.779Z,-1.22
2023-02-09T10:47:27.150Z,-1.22
2023-02-09T10:49:32.261Z,-1.23
2023-02-09T10:51:35.044Z,-1.10
2023-02-09T10:53:40.360Z,-1.10
2023-02-09T10:55:43.358Z,-1.01
2023-02-09T10:57:46.063Z,-1.00
2023-02-09T10:59:52.669Z,-1.01
2023-02-09T11:01:58.336Z,-0.94
2023-02-09T11:04:04.463Z,-0.93
2023-02-09T11:06:15.142Z,-0.91
2023-02-09T11:08:20.480Z,-0.77
2023-02-09T11:10:23.386Z,-0.67
2023-02-09T11:12:28.493Z,-0.69
2023-02-09T11:14:31.210Z,-0.65
2023-02-09T11:17:04.165Z,-0.62
2023-02-09T11:19:22.332Z,-0.57
2023-02-09T11:21:36.540Z,-0.58
2023-02-09T11:23:46.279Z,-0.56
2023-02-09T11:25:58.188Z,-0.41
2023-02-09T11:28:19.543Z,-0.42
2023-02-09T11:30:42.876Z,-0.33
2023-02-09T11:32:52.390Z,-0.32
2023-02-09T11:35:05.005Z,-0.33
2023-02-09T11:37:22.564Z,-0.18
2023-02-09T11:39:38.349Z,-0.12
2023-02-09T11:42:04.281Z,0.01
2023-02-09T11:44:08.580Z,-0.04
2023-02-09T11:46:15.706Z,-0.10
2023-02-09T11:48:25.834Z,-0.09
2023-02-09T11:50:36.627Z,-0.05
2023-02-09T11:52:49.156Z,-0.09
2023-02-09T11:54:57.620Z,-0.07
2023-02-09T11:57:03.900Z,0.15
2023-02-09T11:59:11.564Z,0.16
2023-02-09T12:01:29.006Z,0.12
2023-02-09T12:03:31.580Z,0.46
2023-02-09T12:05:35.731Z,0.31
2023-02-09T12:07:44.644Z,0.40
2023-02-09T12:09:55.779Z,0.38
2023-02-09T12:12:11.546Z,0.39
2023-02-09T12:14:46.301Z,0.43
2023-02-09T12:16:58.059Z,0.43
2023-02-09T12:19:00.582Z,0.45
2023-02-09T12:21:06.640Z,0.52
2023-02-09T12:23:19.642Z,0.81
2023-02-09T12:25:50.892Z,0.88
2023-02-09T12:28:14.202Z,0.93
2023-02-09T12:30:59.241Z,0.92
2023-02-09T12:33:17.387Z,1.01
2023-02-09T12:35:29.300Z,1.10
2023-02-09T12:37:33.264Z,1.17
2023-02-09T12:39:35.867Z,1.26
2023-02-09T12:42:26.961Z,1.46
2023-02-09T12:44:40.459Z,1.68
2023-02-09T12:46:53.431Z,1.68
2023-02-09T12:49:21.486Z,2.14
2023-02-09T12:51:56.029Z,1.97
2023-02-09T12:53:59.915Z,2.16
2023-02-09T12:56:23.143Z,2.12
2023-02-09T12:58:36.823Z,2.20
2023-02-09T13:00:52.680Z,2.13
2023-02-09T13:02:57.552Z,2.29
2023-02-09T13:05:05.231Z,2.33
2023-02-09T13:07:19.168Z,2.50
2023-02-09T13:09:29.003Z,2.41
2023-02-09T13:11:44.131Z,2.36
2023-02-09T13:13:50.597Z,2.40
2023-02-09T13:16:09.697Z,2.42
2023-02-09T13:18:21.205Z,2.48
2023-02-09T13:20:42.820Z,2.49
2023-02-09T13:22:58.156Z,2.91
2023-02-09T13:25:14.117Z,2.88
2023-02-09T13:27:22.800Z,2.89
2023-02-09T13:29:27.310Z,3.12
2023-02-09T13:31:36.893Z,3.17
2023-02-09T13:33:50.208Z,3.46
2023-02-09T13:36:07.153Z,3.22
2023-02-09T13:38:17.172Z,3.17
2023-02-09T13:40:25.168Z,3.06
2023-02-09T13:42:30.441Z,3.04
2023-02-09T13:44:34.862Z,3.00
2023-02-09T13:46:39.388Z,2.99
2023-02-09T13:48:41.996Z,3.06
2023-02-09T13:50:48.587Z,3.04
2023-02-09T13:52:51.823Z,3.06
2023-02-09T13:54:54.912Z,3.06
2023-02-09T13:57:01.676Z,3.08
2023-02-09T13:59:04.917Z,3.12
2023-02-09T14:01:10.117Z,3.50
2023-02-09T14:03:17.528Z,3.65
2023-02-09T14:05:29.730Z,3.61
2023-02-09T14:07:36.522Z,3.71
2023-02-09T14:09:44.376Z,3.69
2023-02-09T14:11:52.958Z,3.79
2023-02-09T14:14:02.294Z,3.77
2023-02-09T14:16:06.808Z,3.81
2023-02-09T14:18:31.503Z,3.84
2023-02-09T14:20:34.128Z,3.96
2023-02-09T14:22:38.667Z,4.20
2023-02-09T14:24:43.807Z,4.23
2023-02-09T14:26:50.064Z,4.30
2023-02-09T14:29:04.491Z,4.36
2023-02-09T14:31:19.714Z,4.43
2023-02-09T14:33:25.204Z,4.50
2023-02-09T14:35:30.229Z,4.55
2023-02-09T14:37:32.777Z,4.63
2023-02-09T14:39:35.333Z,4.65
2023-02-09T14:41:38.058Z,4.69
2023-02-09T14:43:40.636Z,4.72
2023-02-09T14:45:46.064Z,4.76
2023-02-09T14:47:50.125Z,4.78
2023-02-09T14:49:52.679Z,4.79
2023-02-09T14:52:06.185Z,4.82
2023-02-09T14:54:19.762Z,4.85
2023-02-09T14:56:28.459Z,4.88
2023-02-09T14:58:33.478Z,4.92
2023-02-09T15:00:36.047Z,4.91
2023-02-09T15:02:38.783Z,4.92
2023-02-09T15:04:42.715Z,4.89
2023-02-09T15:06:48.039Z,4.86
2023-02-09T15:08:50.598Z,4.81
2023-02-09T15:10:56.020Z,4.77
2023-02-09T15:12:59.502Z,4.70
2023-02-09T15:15:02.802Z,4.62
2023-02-09T15:17:13.226Z,4.52
2023-02-09T15:19:20.108Z,4.44
2023-02-09T15:21:23.996Z,4.38
2023-02-09T15:23:26.651Z,4.32
2023-02-09T15:25:30.203Z,4.25
2023-02-09T15:27:35.426Z,4.19
2023-02-09T15:29:37.985Z,4.13
2023-02-09T15:31:41.828Z,4.06
2023-02-09T15:33:45.056Z,3.99
2023-02-09T15:35:48.370Z,3.92
2023-02-09T15:37:54.544Z,3.84
2023-02-09T15:40:00.526Z,3.79
2023-02-09T15:42:20.574Z,3.72
2023-02-09T15:44:40.648Z,3.67
2023-02-09T15:47:02.681Z,3.58
2023-02-09T15:49:07.505Z,3.52
2023-02-09T15:51:10.781Z,3.48
2023-02-09T15:53:18.690Z,3.43
2023-02-09T15:55:23.085Z,3.39
2023-02-09T15:57:26.264Z,3.33
2023-02-09T15:59:29.098Z,3.26
2023-02-09T16:01:33.805Z,3.22
2023-02-09T16:03:36.521Z,3.19
2023-02-09T16:05:39.086Z,3.14
2023-02-09T16:07:41.770Z,3.12
2023-02-09T16:09:45.719Z,3.07
2023-02-09T16:11:48.442Z,3.05
2023-02-09T16:13:51.881Z,2.99
2023-02-09T16:15:58.274Z,2.95
2023-02-09T16:18:05.283Z,2.91
2023-02-09T16:20:11.570Z,2.86
2023-02-09T16:22:14.471Z,2.83
2023-02-09T16:24:22.526Z,2.79
2023-02-09T16:26:28.390Z,2.74
2023-02-09T16:28:31.117Z,2.69
2023-02-09T16:30:37.625Z,2.67
2023-02-09T16:32:40.196Z,2.63
2023-02-09T16:34:42.762Z,2.58
2023-02-09T16:36:47.689Z,2.56
2023-02-09T16:38:51.525Z,2.52
2023-02-09T16:40:56.034Z,2.50
2023-02-09T16:43:02.058Z,2.46
2023-02-09T16:45:05.809Z,2.40
2023-02-09T16:47:15.175Z,2.40
2023-02-09T16:49:31.879Z,2.38
2023-02-09T16:51:35.150Z,2.39
2023-02-09T16:53:40.665Z,2.37
2023-02-09T16:55:43.482Z,2.35
2023-02-09T16:57:46.142Z,2.32
2023-02-09T16:59:50.037Z,2.32
2023-02-09T17:01:52.669Z,2.30
2023-02-09T17:03:57.125Z,2.29
2023-02-09T17:06:01.442Z,2.28
2023-02-09T17:08:07.785Z,2.26
2023-02-09T17:10:21.121Z,2.22
2023-02-09T17:12:24.144Z,2.18
2023-02-09T17:14:26.750Z,2.14
2023-02-09T17:16:33.765Z,2.14
2023-02-09T17:18:41.375Z,2.13
2023-02-09T17:20:47.070Z,2.11
2023-02-09T17:22:51.707Z,2.06
2023-02-09T17:24:54.350Z,2.04
2023-02-09T17:26:56.903Z,1.95
2023-02-09T17:28:59.554Z,1.90
2023-02-09T17:31:04.452Z,1.85
2023-02-09T17:33:16.285Z,1.84
2023-02-09T17:35:38.247Z,1.78
2023-02-09T17:37:44.039Z,1.74
2023-02-09T17:39:46.638Z,1.73
2023-02-09T17:41:50.001Z,1.69
2023-02-09T17:43:53.722Z,1.65
2023-02-09T17:45:56.679Z,1.64
2023-02-09T17:47:59.455Z,1.63
2023-02-09T17:50:03.361Z,1.64
2023-02-09T17:52:06.386Z,1.61
2023-02-09T17:54:14.038Z,1.60
2023-02-09T17:56:16.993Z,1.55
2023-02-09T17:58:20.185Z,1.54
2023-02-09T18:00:23.095Z,1.49
2023-02-09T18:02:25.726Z,1.43
2023-02-09T18:04:28.710Z,1.41
2023-02-09T18:06:36.070Z,1.37
2023-02-09T18:08:38.616Z,1.37
2023-02-09T18:10:41.189Z,1.37
2023-02-09T18:12:44.142Z,1.36
2023-02-09T18:14:46.741Z,1.35
2023-02-09T18:16:49.891Z,1.32
2023-02-09T18:18:52.462Z,1.29
2023-02-09T18:20:55.250Z,1.28
2023-02-09T18:22:59.138Z,1.24
2023-02-09T18:25:01.697Z,1.18
2023-02-09T18:27:04.675Z,1.19
2023-02-09T18:29:07.238Z,1.13
2023-02-09T18:31:15.276Z,1.10
2023-02-09T18:33:20.902Z,1.05
2023-02-09T18:35:25.701Z,1.04
2023-02-09T18:37:28.246Z,1.04
2023-02-09T18:39:34.480Z,0.96
2023-02-09T18:41:37.216Z,0.92
2023-02-09T18:43:40.204Z,0.92
2023-02-09T18:45:42.817Z,0.93
2023-02-09T18:47:46.498Z,0.87
2023-02-09T18:49:49.074Z,0.94
2023-02-09T18:51:52.107Z,0.91
2023-02-09T18:53:54.697Z,0.76
2023-02-09T18:55:58.621Z,0.69
2023-02-09T18:58:04.593Z,0.67
2023-02-09T19:00:08.915Z,0.81
2023-02-09T19:02:12.400Z,0.88
2023-02-09T19:04:14.993Z,0.77
2023-02-09T19:06:17.605Z,0.70
2023-02-09T19:08:20.190Z,0.67
2023-02-09T19:10:23.914Z,0.67
2023-02-09T19:12:28.417Z,0.66
2023-02-09T19:14:39.882Z,0.63
2023-02-09T19:16:42.832Z,0.64
2023-02-09T19:18:46.356Z,0.67
2023-02-09T19:20:49.016Z,0.79
2023-02-09T19:22:52.286Z,0.72
2023-02-09T19:24:56.731Z,0.69
2023-02-09T19:26:59.326Z,0.68
2023-02-09T19:29:03.231Z,0.69
2023-02-09T19:31:11.672Z,0.66
2023-02-09T19:33:14.397Z,0.66
2023-02-09T19:35:17.960Z,0.63
2023-02-09T19:37:21.796Z,0.62
2023-02-09T19:39:25.458Z,0.59
2023-02-09T19:41:28.243Z,0.59
2023-02-09T19:43:30.811Z,0.62
2023-02-09T19:45:37.465Z,0.63
2023-02-09T19:47:40.333Z,0.63
2023-02-09T19:49:42.932Z,0.66
2023-02-09T19:51:45.558Z,0.66
2023-02-09T19:53:48.191Z,0.66
2023-02-09T19:55:51.318Z,0.67
2023-02-09T19:57:53.890Z,0.66
2023-02-09T19:59:56.597Z,0.64
2023-02-09T20:02:00.545Z,0.62
2023-02-09T20:04:03.127Z,0.61
2023-02-09T20:06:08.575Z,0.58
2023-02-09T20:08:14.336Z,0.59
2023-02-09T20:10:16.929Z,0.57
2023-02-09T20:12:21.510Z,0.52
2023-02-09T20:14:24.664Z,0.47
2023-02-09T20:16:28.339Z,0.45
2023-02-09T20:18:32.301Z,0.45
2023-02-09T20:20:34.894Z,0.43
2023-02-09T20:22:37.640Z,0.40
2023-02-09T20:24:40.375Z,0.38
2023-02-09T20:26:44.327Z,0.35
2023-02-09T20:28:46.867Z,0.29
2023-02-09T20:30:49.588Z,0.20
2023-02-09T20:32:52.212Z,0.10
2023-02-09T20:34:56.180Z,0.04
2023-02-09T20:36:58.846Z,0.02
2023-02-09T20:39:01.407Z,-0.01
2023-02-09T20:41:04.067Z,-0.03
2023-02-09T20:43:24.360Z,-0.02
2023-02-09T20:45:44.591Z,-0.06
2023-02-09T20:47:47.244Z,-0.08
2023-02-09T20:49:50.044Z,-0.10
2023-02-09T20:51:54.004Z,-0.11
2023-02-09T20:53:56.590Z,-0.08
2023-02-09T20:55:59.369Z,-0.06
2023-02-09T20:58:01.906Z,-0.04
2023-02-09T21:00:09.075Z,-0.04
2023-02-09T21:02:12.983Z,-0.03
2023-02-09T21:04:15.584Z,-0.03
2023-02-09T21:06:18.476Z,0.01
2023-02-09T21:08:22.908Z,0.03
2023-02-09T21:10:25.842Z,0.01
2023-02-09T21:12:28.423Z,0.03
2023-02-09T21:14:41.837Z,0.01
2023-02-09T21:16:45.511Z,0.00
2023-02-09T21:18:48.109Z,0.01
2023-02-09T21:20:50.856Z,0.01
2023-02-09T21:22:53.590Z,0.02
2023-02-09T21:24:57.488Z,0.03
2023-02-09T21:27:00.629Z,0.06
2023-02-09T21:29:03.172Z,0.05
2023-02-09T21:31:10.774Z,0.05
2023-02-09T21:33:13.286Z,0.03
2023-02-09T21:35:16.619Z,0.02
2023-02-09T21:37:19.723Z,0.18
2023-02-09T21:39:22.526Z,0.05
2023-02-09T21:41:45.160Z,-0.02
2023-02-09T21:43:48.259Z,-0.09
2023-02-09T21:45:50.877Z,-0.12
2023-02-09T21:47:53.522Z,-0.15
2023-02-09T21:49:56.367Z,-0.15
2023-02-09T21:51:58.963Z,-0.17
2023-02-09T21:54:01.660Z,-0.19
2023-02-09T21:56:07.234Z,-0.19
2023-02-09T21:58:11.108Z,-0.19
2023-02-09T22:00:15.025Z,-0.20
2023-02-09T22:02:19.352Z,-0.23
2023-02-09T22:04:22.108Z,-0.25
2023-02-09T22:06:25.292Z,-0.28
2023-02-09T22:08:28.944Z,-0.29
2023-02-09T22:10:31.489Z,-0.32
2023-02-09T22:12:36.324Z,-0.34
2023-02-09T22:14:40.262Z,-0.33
2023-02-09T22:16:43.053Z,-0.36
2023-02-09T22:18:45.634Z,-0.39
2023-02-09T22:20:48.540Z,-0.39
2023-02-09T22:22:51.227Z,-0.46
2023-02-09T22:24:53.760Z,-0.53
2023-02-09T22:26:56.311Z,-0.60
2023-02-09T22:28:58.964Z,-0.67
2023-02-09T22:31:07.576Z,-0.62
2023-02-09T22:33:10.202Z,-0.68
2023-02-09T22:35:12.730Z,-0.73
2023-02-09T22:37:15.285Z,-0.71
2023-02-09T22:39:17.821Z,-0.70
2023-02-09T22:41:24.873Z,-0.73
2023-02-09T22:43:27.834Z,-0.77
2023-02-09T22:45:30.410Z,-0.78
2023-02-09T22:47:35.028Z,-0.80
2023-02-09T22:49:37.587Z,-0.79
2023-02-09T22:51:40.214Z,-0.81
2023-02-09T22:53:42.795Z,-0.83
2023-02-09T22:55:48.269Z,-0.81
2023-02-09T22:57:51.059Z,-0.83
2023-02-09T22:59:53.665Z,-0.79
2023-02-09T23:01:56.269Z,-0.80
2023-02-09T23:04:00.330Z,-0.80
2023-02-09T23:06:03.183Z,-0.80
2023-02-09T23:08:06.198Z,-0.82
2023-02-09T23:10:08.980Z,-0.81
2023-02-09T23:12:11.551Z,-0.85
2023-02-09T23:14:14.167Z,-0.86
2023-02-09T23:16:19.322Z,-0.82
2023-02-09T23:18:21.914Z,-0.85
2023-02-09T23:20:25.808Z,-0.85
2023-02-09T23:22:28.370Z,-0.83
2023-02-09T23:24:30.886Z,-0.82
2023-02-09T23:26:33.834Z,-0.82
2023-02-09T23:28:36.479Z,-0.78
2023-02-09T23:30:41.680Z,-0.82
2023-02-09T23:32:44.219Z,-0.83
2023-02-09T23:34:46.746Z,-0.85
2023-02-09T23:36:50.900Z,-0.81
2023-02-09T23:38:54.642Z,-0.78
2023-02-09T23:40:57.171Z,-0.77
2023-02-09T23:42:59.733Z,-0.81
2023-02-09T23:45:02.276Z,-0.76
2023-02-09T23:47:05.379Z,-0.77
2023-02-09T23:49:07.939Z,-0.77
2023-02-09T23:51:14.052Z,-0.76
2023-02-09T23:53:17.946Z,-0.78
2023-02-09T23:55:20.549Z,-0.81
2023-02-09T23:57:23.566Z,-0.77
2023-02-09T23:59:26.111Z,-0.76
